Time;durP1;ratioP1;P1;durP2;ratioP2;P2;SDS_P1;SDS_P2;PMS_P1;PMS_P2;Temp;Humidity;BMP_temperature;BMP_pressure;BME280_temperature;BME280_humidity;BME280_pressure;Samples;Min_cycle;Max_cycle;Signal;HPM_P1;HPM_P2
2022/02/12 00:00:56;;;;;;;7.40;4.10;;;;;;;0.22;80.25;97707.05;107014;1274;126852;-82
2022/02/12 00:03:25;;;;;;;5.80;3.00;;;;;;;0.19;80.02;97703.64;107212;1273;121326;-82
2022/02/12 00:05:54;;;;;;;7.80;3.80;;;;;;;0.20;79.96;97701.95;107043;1272;186997;-82
2022/02/12 00:08:22;;;;;;;5.10;3.40;;;;;;;0.19;79.69;97707.92;107114;1274;151131;-82
2022/02/12 00:10:51;;;;;;;8.60;4.30;;;;;;;0.16;79.99;97704.48;107095;1273;183484;-82
2022/02/12 00:13:19;;;;;;;6.80;3.70;;;;;;;0.14;80.12;97704.49;106965;1274;172490;-82
2022/02/12 00:15:47;;;;;;;10.30;4.50;;;;;;;0.13;80.21;97715.70;107090;1274;113918;-82
2022/02/12 00:18:16;;;;;;;7.30;4.40;;;;;;;0.14;80.29;97719.75;106976;1274;159290;-82
2022/02/12 00:20:47;;;;;;;7.70;4.80;;;;;;;0.16;80.47;97714.92;107039;1274;180544;-82
2022/02/12 00:23:16;;;;;;;8.90;4.90;;;;;;;0.15;80.33;97714.27;107021;1273;164891;-82
2022/02/12 00:25:45;;;;;;;9.00;4.30;;;;;;;0.16;80.34;97720.05;107117;1274;104935;-82
2022/02/12 00:28:13;;;;;;;8.60;5.30;;;;;;;0.17;80.23;97720.02;107125;1274;132280;-82
2022/02/12 00:30:41;;;;;;;11.20;6.00;;;;;;;0.17;80.31;97725.48;107163;1274;105655;-82
2022/02/12 00:33:10;;;;;;;8.10;3.40;;;;;;;0.18;80.08;97726.38;107114;1274;125583;-81
2022/02/12 00:35:38;;;;;;;7.40;3.60;;;;;;;0.20;80.47;97728.60;105663;1274;2052015;-82
2022/02/12 00:38:06;;;;;;;9.10;4.70;;;;;;;0.22;80.28;97730.70;106955;1274;196432;-82
2022/02/12 00:40:35;;;;;;;8.70;4.80;;;;;;;0.22;80.23;97746.75;106798;1274;188992;-81
2022/02/12 00:43:03;;;;;;;11.70;5.60;;;;;;;0.24;80.33;97749.36;107180;1274;140820;-82
2022/02/12 00:45:32;;;;;;;11.20;5.50;;;;;;;0.24;80.68;97753.86;107305;1274;156863;-82
2022/02/12 00:48:00;;;;;;;6.20;4.20;;;;;;;0.24;80.43;97755.59;107249;1274;140293;-82
2022/02/12 00:50:29;;;;;;;11.90;5.00;;;;;;;0.22;80.99;97755.13;107067;1274;175589;-81
2022/02/12 00:52:57;;;;;;;11.60;5.80;;;;;;;0.18;81.38;97754.77;106855;1274;180027;-82
2022/02/12 00:55:25;;;;;;;10.80;6.10;;;;;;;0.15;81.72;97765.89;107024;1274;136908;-82
2022/02/12 00:57:54;;;;;;;13.50;7.40;;;;;;;0.15;81.86;97767.02;106762;1274;194389;-82
2022/02/12 01:00:22;;;;;;;10.10;5.40;;;;;;;0.15;81.78;97766.65;107137;1274;178763;-82
2022/02/12 01:02:51;;;;;;;13.30;7.40;;;;;;;0.15;81.89;97765.73;107031;1274;127622;-82
2022/02/12 01:05:20;;;;;;;13.40;6.60;;;;;;;0.15;82.25;97768.02;106976;1274;128409;-82
2022/02/12 01:07:48;;;;;;;15.50;4.90;;;;;;;0.15;82.22;97765.11;107100;1273;145802;-82
2022/02/12 01:10:16;;;;;;;13.90;7.20;;;;;;;0.14;82.28;97767.23;106934;1275;138460;-82
2022/02/12 01:12:44;;;;;;;11.00;6.50;;;;;;;0.13;82.31;97761.15;106926;1274;181233;-82
2022/02/12 01:15:13;;;;;;;11.10;6.00;;;;;;;0.12;82.46;97766.52;106983;1274;132200;-82
2022/02/12 01:17:41;;;;;;;9.40;6.00;;;;;;;0.12;82.44;97762.63;107113;1274;121004;-82
2022/02/12 01:20:11;;;;;;;12.10;7.10;;;;;;;0.13;82.46;97767.77;106984;1274;157079;-82
2022/02/12 01:22:40;;;;;;;9.60;5.90;;;;;;;0.14;82.43;97766.39;106919;1274;165446;-81
2022/02/12 01:25:10;;;;;;;14.30;6.60;;;;;;;0.15;82.33;97768.70;106998;1274;136742;-81
2022/02/12 01:27:38;;;;;;;12.70;6.20;;;;;;;0.16;82.46;97768.35;107126;1274;147627;-82
2022/02/12 01:30:08;;;;;;;13.60;6.40;;;;;;;0.20;82.28;97771.23;107034;1274;157474;-82
2022/02/12 01:32:37;;;;;;;11.30;6.10;;;;;;;0.22;82.22;97773.74;105333;1275;2021137;-81
2022/02/12 01:35:08;;;;;;;11.10;5.70;;;;;;;0.24;82.41;97767.45;106980;1274;179396;-81
2022/02/12 01:37:36;;;;;;;11.20;5.90;;;;;;;0.25;82.36;97773.33;107047;1274;130174;-81
2022/02/12 01:40:07;;;;;;;12.70;6.40;;;;;;;0.27;82.35;97774.50;107009;1274;173324;-81
2022/02/12 01:42:36;;;;;;;9.40;6.10;;;;;;;0.27;82.42;97779.16;106955;1274;201700;-82
2022/02/12 01:45:05;;;;;;;10.70;6.90;;;;;;;0.28;82.28;97782.77;107111;1274;133061;-81
2022/02/12 01:47:33;;;;;;;10.80;6.50;;;;;;;0.28;82.34;97785.36;107109;1274;135670;-80
2022/02/12 01:50:02;;;;;;;15.70;7.00;;;;;;;0.29;82.03;97782.63;107237;1274;181195;-82
2022/02/12 01:52:31;;;;;;;14.50;7.20;;;;;;;0.30;82.33;97781.83;105774;1274;2186229;-82
2022/02/12 01:55:00;;;;;;;11.80;7.30;;;;;;;0.31;82.33;97788.05;107368;1273;105410;-82
2022/02/12 01:57:28;;;;;;;12.60;6.20;;;;;;;0.32;82.47;97791.59;107265;1274;106980;-82
2022/02/12 01:59:57;;;;;;;11.10;7.40;;;;;;;0.31;82.49;97793.19;107145;1274;116354;-82
2022/02/12 02:02:25;;;;;;;10.00;5.20;;;;;;;0.32;82.57;97793.91;107114;1274;129588;-82
2022/02/12 02:04:54;;;;;;;16.80;7.70;;;;;;;0.34;82.65;97793.25;107046;1274;103115;-82
2022/02/12 02:07:22;;;;;;;10.90;6.90;;;;;;;0.34;82.72;97789.48;107163;1274;107074;-82
2022/02/12 02:09:51;;;;;;;12.20;7.20;;;;;;;0.35;82.62;97792.05;107048;1273;157707;-82
2022/02/12 02:12:20;;;;;;;11.40;6.50;;;;;;;0.35;82.63;97802.45;106927;1274;202580;-82
2022/02/12 02:14:48;;;;;;;10.70;6.90;;;;;;;0.35;82.91;97805.55;106943;1274;196087;-82
2022/02/12 02:17:16;;;;;;;12.70;7.10;;;;;;;0.35;82.80;97804.14;107148;1274;113561;-82
2022/02/12 02:19:45;;;;;;;10.00;5.40;;;;;;;0.34;83.06;97804.66;107059;1274;172156;-82
2022/02/12 02:22:14;;;;;;;15.40;8.10;;;;;;;0.34;83.46;97802.05;107216;1274;144922;-82
2022/02/12 02:24:43;;;;;;;12.20;7.10;;;;;;;0.34;83.36;97798.27;107139;1273;118677;-82
2022/02/12 02:27:14;;;;;;;15.10;8.20;;;;;;;0.34;83.38;97794.42;107121;1272;111452;-82
2022/02/12 02:29:44;;;;;;;17.10;7.70;;;;;;;0.34;83.50;97791.98;107110;1274;109196;-82
2022/02/12 02:32:14;;;;;;;14.40;7.70;;;;;;;0.33;83.39;97797.10;107029;1274;136929;-82
2022/02/12 02:34:49;;;;;;;11.20;5.90;;;;;;;0.34;83.40;97806.05;107150;1273;155150;-82
2022/02/12 02:37:19;;;;;;;12.10;7.20;;;;;;;0.35;82.95;97807.15;107015;1274;149477;-82
2022/02/12 02:39:48;;;;;;;13.70;7.30;;;;;;;0.35;83.04;97815.42;107010;1274;155361;-82
2022/02/12 02:42:17;;;;;;;13.20;7.80;;;;;;;0.37;82.96;97815.98;106849;1273;156386;-82
2022/02/12 02:44:45;;;;;;;10.10;6.20;;;;;;;0.38;82.96;97824.52;106981;1274;146030;-82
2022/02/12 02:50:01;;;;;;;11.40;6.10;;;;;;;0.41;82.65;97840.30;107519;1274;225348;-82
2022/02/12 02:58:03;;;;;;;13.60;5.80;;;;;;;0.40;82.86;97833.77;107385;1274;36644;-82
2022/02/12 03:00:31;;;;;;;9.20;5.60;;;;;;;0.39;82.84;97839.17;107454;1274;38473;-82
2022/02/12 03:02:59;;;;;;;10.90;5.20;;;;;;;0.37;83.09;97834.17;107337;1273;59615;-82
2022/02/12 03:05:27;;;;;;;14.60;8.10;;;;;;;0.36;83.21;97846.81;107473;1274;94829;-82
2022/02/12 03:07:55;;;;;;;14.00;7.80;;;;;;;0.36;83.13;97844.44;107359;1274;51525;-82
2022/02/12 03:10:24;;;;;;;12.10;7.20;;;;;;;0.36;83.31;97850.78;107487;1275;72531;-82
2022/02/12 03:12:52;;;;;;;15.00;8.10;;;;;;;0.38;83.37;97852.69;107261;1273;137477;-82
2022/02/12 03:15:21;;;;;;;11.90;6.20;;;;;;;0.40;83.43;97855.07;107383;1274;41817;-82
2022/02/12 03:17:49;;;;;;;11.70;7.50;;;;;;;0.41;83.27;97856.61;107354;1275;34930;-82
2022/02/12 03:20:22;;;;;;;11.90;7.30;;;;;;;0.41;83.50;97856.77;107452;1273;39634;-82
2022/02/12 03:23:01;;;;;;;14.00;8.10;;;;;;;0.40;83.51;97856.56;106141;1274;1765064;-82
2022/02/12 03:25:30;;;;;;;12.60;6.80;;;;;;;0.40;83.71;97858.35;107184;1273;202407;-82
2022/02/12 03:28:00;;;;;;;15.30;6.80;;;;;;;0.39;83.77;97869.06;107033;1274;122491;-82
2022/02/12 03:30:30;;;;;;;11.60;7.00;;;;;;;0.37;84.04;97871.89;106159;1275;1298197;-82
2022/02/12 03:32:58;;;;;;;11.10;7.20;;;;;;;0.36;84.25;97878.70;105352;1274;2060292;-82
2022/02/12 03:35:27;;;;;;;13.10;8.10;;;;;;;0.34;84.70;97886.80;107023;1273;141728;-82
2022/02/12 03:38:05;;;;;;;11.00;6.00;;;;;;;0.31;84.86;97883.79;106819;1273;167688;-82
2022/02/12 03:40:36;;;;;;;15.10;8.10;;;;;;;0.31;85.02;97888.16;107142;1274;219986;-83
2022/02/12 03:43:16;;;;;;;10.80;7.20;;;;;;;0.32;85.07;97893.11;106115;1274;2098236;-82
2022/02/12 03:45:45;;;;;;;12.70;6.90;;;;;;;0.33;85.02;97896.45;106754;1273;181648;-82
2022/02/12 03:48:14;;;;;;;10.10;6.40;;;;;;;0.33;85.05;97896.61;107182;1275;110929;-83
2022/02/12 03:50:42;;;;;;;13.20;8.10;;;;;;;0.32;85.44;97900.70;106000;1275;1501678;-82
2022/02/12 03:53:11;;;;;;;11.10;5.70;;;;;;;0.30;85.64;97903.55;106957;1275;207981;-82
2022/02/12 03:55:40;;;;;;;9.90;5.90;;;;;;;0.32;85.95;97904.42;106914;1274;169217;-82
2022/02/12 03:58:11;;;;;;;8.70;5.40;;;;;;;0.31;85.85;97904.94;106835;1274;217244;-81
2022/02/12 04:00:41;;;;;;;13.50;7.10;;;;;;;0.32;85.95;97908.33;107074;1274;159810;-82
2022/02/12 04:03:11;;;;;;;12.30;5.50;;;;;;;0.33;85.97;97915.42;105835;1274;1785252;-82
2022/02/12 04:05:43;;;;;;;9.80;6.20;;;;;;;0.33;86.07;97919.20;107152;1274;168774;-82
2022/02/12 04:08:13;;;;;;;8.70;5.90;;;;;;;0.33;86.25;97923.02;107171;1273;120641;-82
2022/02/12 04:10:41;;;;;;;13.40;8.00;;;;;;;0.32;86.12;97929.78;107058;1274;211727;-82
2022/02/12 04:13:11;;;;;;;11.00;7.00;;;;;;;0.31;85.93;97942.09;106947;1274;164468;-81
2022/02/12 04:15:39;;;;;;;12.80;8.20;;;;;;;0.31;85.64;97939.96;107149;1274;118436;-82
2022/02/12 04:18:10;;;;;;;14.20;8.50;;;;;;;0.32;85.75;97939.70;107078;1274;140428;-82
2022/02/12 04:20:39;;;;;;;12.80;7.70;;;;;;;0.32;85.47;97943.60;107076;1274;171870;-82
2022/02/12 04:23:08;;;;;;;12.50;6.50;;;;;;;0.32;85.35;97952.94;105813;1274;1824296;-81
2022/02/12 04:25:37;;;;;;;12.80;8.80;;;;;;;0.29;85.58;97962.61;107015;1275;129532;-82
2022/02/12 04:28:07;;;;;;;17.60;8.80;;;;;;;0.26;85.80;97963.83;106865;1274;179765;-81
2022/02/12 04:30:36;;;;;;;14.00;8.90;;;;;;;0.23;85.58;97961.67;106964;1274;189759;-81
2022/02/12 04:33:05;;;;;;;15.20;8.90;;;;;;;0.23;85.43;97969.73;107141;1274;113699;-80
2022/02/12 04:35:34;;;;;;;14.90;8.30;;;;;;;0.23;85.35;97979.13;107127;1274;129917;-80
2022/02/12 04:38:02;;;;;;;13.70;8.50;;;;;;;0.21;85.29;97979.02;107063;1274;140641;-82
2022/02/12 04:40:31;;;;;;;15.20;8.20;;;;;;;0.18;85.37;97983.95;107322;1274;93699;-82
2022/02/12 04:42:59;;;;;;;11.00;7.50;;;;;;;0.14;85.24;97977.75;107309;1273;148195;-82
2022/02/12 04:45:28;;;;;;;13.10;8.00;;;;;;;0.05;84.93;97994.17;106359;1274;1210858;-82
2022/02/12 04:47:56;;;;;;;19.40;9.50;;;;;;;-0.02;85.00;98002.89;107025;1274;210149;-82
2022/02/12 04:50:25;;;;;;;14.20;8.70;;;;;;;-0.04;85.18;98013.40;107151;1274;154065;-82
2022/02/12 04:52:53;;;;;;;13.90;8.30;;;;;;;-0.05;85.42;98016.56;105821;1274;1552019;-82
2022/02/12 04:55:22;;;;;;;9.10;5.90;;;;;;;-0.06;85.39;98013.90;106941;1274;195667;-81
2022/02/12 04:57:50;;;;;;;15.70;8.50;;;;;;;-0.10;85.40;98016.98;106981;1274;106195;-82
2022/02/12 05:00:20;;;;;;;12.10;8.20;;;;;;;-0.17;85.03;98015.85;107004;1274;128010;-82
2022/02/12 05:02:48;;;;;;;13.80;8.70;;;;;;;-0.19;85.24;98025.32;105723;1274;1816178;-81
2022/02/12 05:05:16;;;;;;;15.10;8.70;;;;;;;-0.19;85.29;98029.65;106961;1274;161917;-81
2022/02/12 05:07:45;;;;;;;16.10;9.40;;;;;;;-0.19;85.34;98028.28;107106;1274;156583;-82
2022/02/12 05:10:13;;;;;;;16.20;9.60;;;;;;;-0.21;85.61;98022.60;107074;1273;150126;-82
2022/02/12 05:12:41;;;;;;;12.80;7.40;;;;;;;-0.25;85.46;98023.10;106876;1274;194586;-82
2022/02/12 05:15:11;;;;;;;13.20;6.30;;;;;;;-0.27;85.44;98030.84;107043;1274;119937;-81
2022/02/12 05:17:39;;;;;;;12.00;6.90;;;;;;;-0.30;85.59;98030.58;106988;1274;119181;-82
2022/02/12 05:20:10;;;;;;;12.50;8.10;;;;;;;-0.33;85.40;98026.73;107058;1274;167981;-82
2022/02/12 05:22:37;;;;;;;;;;;;;;;-0.39;85.27;98033.72;107163;1273;145030;-82
2022/02/12 05:25:07;;;;;;;10.00;6.90;;;;;;;-0.40;85.28;98037.95;107040;1274;165155;-81
2022/02/12 05:27:34;;;;;;;;;;;;;;;-0.44;84.98;98038.95;106932;1274;139654;-81
2022/02/12 05:30:04;;;;;;;9.20;5.80;;;;;;;-0.49;85.03;98051.17;107170;1274;132719;-82
2022/02/12 05:32:32;;;;;;;12.80;7.70;;;;;;;-0.53;84.93;98051.34;107235;1274;149506;-82
2022/02/12 05:35:01;;;;;;;13.70;8.20;;;;;;;-0.58;84.96;98060.52;107202;1274;144689;-82
2022/02/12 05:37:29;;;;;;;11.40;7.70;;;;;;;-0.64;84.52;98070.68;107272;1274;149618;-82
2022/02/12 05:39:58;;;;;;;14.20;7.00;;;;;;;-0.67;84.40;98072.11;107022;1274;167149;-82
2022/02/12 05:42:26;;;;;;;11.40;8.10;;;;;;;-0.70;84.44;98077.16;106732;1274;193308;-82
2022/02/12 05:44:54;;;;;;;11.20;6.30;;;;;;;-0.75;84.30;98073.17;106953;1274;178393;-82
2022/02/12 05:47:22;;;;;;;10.70;6.00;;;;;;;-0.80;84.03;98081.02;106002;1274;1288461;-81
2022/02/12 05:49:51;;;;;;;9.30;5.60;;;;;;;-0.85;83.72;98088.73;107240;1274;119696;-82
2022/02/12 05:52:19;;;;;;;8.30;5.50;;;;;;;-0.91;83.05;98101.66;106765;1274;187183;-82
2022/02/12 05:54:47;;;;;;;9.30;5.60;;;;;;;-0.97;83.10;98107.00;106903;1274;154513;-82
2022/02/12 05:57:16;;;;;;;9.10;5.80;;;;;;;-1.02;83.04;98108.79;106830;1274;217611;-82
2022/02/12 05:59:45;;;;;;;8.70;5.20;;;;;;;-1.05;82.96;98110.40;106227;1274;1302762;-82
2022/02/12 06:02:13;;;;;;;7.10;4.70;;;;;;;-1.10;82.77;98118.16;106958;1275;132861;-82
2022/02/12 06:04:42;;;;;;;9.70;5.90;;;;;;;-1.13;82.45;98114.94;107201;1274;113925;-82
2022/02/12 06:07:10;;;;;;;8.70;5.00;;;;;;;-1.17;82.64;98114.17;105738;1274;1831248;-81
2022/02/12 06:09:39;;;;;;;7.80;5.00;;;;;;;-1.22;82.50;98127.66;107049;1274;135974;-82
2022/02/12 06:12:09;;;;;;;7.70;5.10;;;;;;;-1.24;82.46;98130.75;105775;1273;1657326;-82
2022/02/12 06:14:37;;;;;;;7.70;5.10;;;;;;;-1.25;82.25;98138.34;106933;1274;147461;-81
2022/02/12 06:17:05;;;;;;;8.80;5.70;;;;;;;-1.26;82.29;98140.06;106925;1274;223943;-81
2022/02/12 06:19:34;;;;;;;9.40;4.50;;;;;;;-1.24;82.27;98151.09;107073;1274;225773;-80
2022/02/12 06:22:02;;;;;;;10.90;4.80;;;;;;;-1.17;82.10;98157.85;107258;1274;153595;-81
2022/02/12 06:24:31;;;;;;;6.50;3.80;;;;;;;-1.13;81.81;98161.00;107100;1273;195741;-82
2022/02/12 06:27:04;;;;;;;9.20;4.80;;;;;;;-1.11;81.73;98156.29;107391;1274;122128;-81
2022/02/12 06:29:32;;;;;;;6.70;4.50;;;;;;;-1.10;81.66;98160.16;107197;1274;111408;-81
2022/02/12 06:32:01;;;;;;;11.30;4.90;;;;;;;-1.05;81.65;98162.74;107209;1274;143929;-82
2022/02/12 06:34:29;;;;;;;5.50;4.10;;;;;;;-1.00;81.61;98173.46;107199;1274;129087;-82
2022/02/12 06:36:57;;;;;;;8.20;4.30;;;;;;;-0.97;81.46;98183.91;107104;1274;127953;-82
2022/02/12 06:39:26;;;;;;;6.10;3.50;;;;;;;-0.99;80.93;98178.55;107235;1274;156363;-82
2022/02/12 06:41:57;;;;;;;6.90;3.70;;;;;;;-1.02;80.10;98176.65;106847;1274;176494;-81
2022/02/12 06:44:27;;;;;;;6.10;2.80;;;;;;;-1.05;79.76;98182.52;105743;1274;1761894;-82
2022/02/12 06:46:55;;;;;;;4.90;3.30;;;;;;;-1.04;79.76;98190.35;106879;1274;167006;-81
2022/02/12 06:49:23;;;;;;;5.50;3.60;;;;;;;-0.66;80.17;98194.79;107081;1274;115812;-82
2022/02/12 06:51:54;;;;;;;5.60;3.30;;;;;;;0.28;79.58;98196.02;105413;1274;2214203;-82
2022/02/12 06:54:22;;;;;;;4.70;3.40;;;;;;;1.14;78.48;98203.31;106924;1275;187250;-82
2022/02/12 06:56:50;;;;;;;8.80;3.90;;;;;;;2.04;77.19;98201.62;106983;1274;134927;-83
2022/02/12 06:59:18;;;;;;;5.90;3.20;;;;;;;2.86;76.00;98197.64;106827;1274;197003;-82
2022/02/12 07:01:47;;;;;;;5.30;3.10;;;;;;;3.68;75.25;98194.36;106834;1274;212437;-82
2022/02/12 07:04:15;;;;;;;7.50;3.60;;;;;;;4.26;73.07;98198.83;107019;1274;146461;-82
2022/02/12 07:06:44;;;;;;;6.60;3.20;;;;;;;4.26;70.42;98197.66;106984;1274;155859;-82
2022/02/12 07:09:13;;;;;;;7.70;3.60;;;;;;;3.98;69.27;98199.48;106705;1274;228425;-82
2022/02/12 07:11:41;;;;;;;5.70;3.70;;;;;;;3.98;69.22;98203.48;107071;1274;134030;-82
2022/02/12 07:14:10;;;;;;;7.70;3.40;;;;;;;4.15;68.98;98212.34;105519;1274;2153211;-82
2022/02/12 07:16:38;;;;;;;6.60;3.50;;;;;;;4.58;69.10;98217.71;107007;1274;188957;-83
2022/02/12 07:19:07;;;;;;;7.20;3.90;;;;;;;4.49;67.43;98221.20;107114;1274;117084;-82
2022/02/12 07:21:35;;;;;;;10.70;5.90;;;;;;;4.05;66.91;98221.67;107033;1274;125667;-81
2022/02/12 07:24:04;;;;;;;7.80;3.90;;;;;;;3.82;66.74;98226.38;107047;1274;209565;-82
2022/02/12 07:26:33;;;;;;;7.50;4.10;;;;;;;3.07;66.53;98228.91;105338;1274;2138375;-84
2022/02/12 07:29:01;;;;;;;7.10;4.50;;;;;;;2.67;67.32;98231.73;106935;1274;173738;-83
2022/02/12 07:31:32;;;;;;;7.90;4.30;;;;;;;2.25;67.24;98231.91;107715;1274;107573;-82
2022/02/12 07:34:00;;;;;;;8.30;4.60;;;;;;;2.04;68.10;98232.95;107018;1274;154418;-82
2022/02/12 07:36:28;;;;;;;11.20;5.30;;;;;;;2.65;67.93;98233.48;107146;1274;240683;-82
2022/02/12 07:38:57;;;;;;;6.90;4.40;;;;;;;3.24;68.18;98234.23;107366;1273;92980;-82
2022/02/12 07:41:27;;;;;;;7.00;4.40;;;;;;;3.84;66.57;98234.77;107323;1274;113114;-82
2022/02/12 07:43:56;;;;;;;7.10;4.30;;;;;;;4.53;66.59;98242.48;107293;1274;107488;-83
2022/02/12 07:46:25;;;;;;;8.30;4.00;;;;;;;5.37;65.68;98248.48;107247;1275;113088;-82
2022/02/12 07:48:54;;;;;;;8.30;4.00;;;;;;;5.62;64.14;98250.71;107238;1274;151022;-83
2022/02/12 07:51:22;;;;;;;6.80;3.90;;;;;;;5.94;62.43;98245.17;107359;1274;94971;-82
2022/02/12 07:53:50;;;;;;;7.40;3.50;;;;;;;5.44;61.94;98250.54;107456;1275;108066;-83
2022/02/12 07:56:19;;;;;;;7.50;3.90;;;;;;;5.00;62.01;98250.77;107276;1274;189409;-83
2022/02/12 07:58:48;;;;;;;5.90;3.60;;;;;;;4.22;61.96;98248.66;107318;1274;194435;-83
2022/02/12 08:01:16;;;;;;;6.90;3.40;;;;;;;3.93;62.78;98253.48;107180;1274;129622;-83
2022/02/12 08:03:45;;;;;;;8.70;3.90;;;;;;;3.65;62.07;98255.10;107378;1274;152889;-82
2022/02/12 08:09:02;;;;;;;8.40;3.70;;;;;;;2.35;63.46;98269.83;107196;1274;190284;-82
2022/02/12 08:11:35;;;;;;;4.50;3.20;;;;;;;2.25;64.53;98275.36;107424;1274;137466;-82
2022/02/12 08:14:03;;;;;;;6.90;3.80;;;;;;;2.33;65.02;98280.16;107416;1274;102705;-83
2022/02/12 08:16:32;;;;;;;9.30;3.60;;;;;;;3.07;64.55;98279.14;107313;1274;117293;-82
2022/02/12 08:19:00;;;;;;;8.30;3.30;;;;;;;3.65;64.21;98285.06;107314;1274;136146;-83
2022/02/12 08:21:31;;;;;;;7.30;3.20;;;;;;;4.49;64.73;98283.06;106458;1274;1395652;-83
2022/02/12 08:23:59;;;;;;;6.30;3.50;;;;;;;4.60;63.49;98286.09;107391;1274;156578;-82
2022/02/12 08:26:29;;;;;;;5.90;3.10;;;;;;;4.97;64.59;98294.68;107296;1273;119632;-82
2022/02/12 08:28:58;;;;;;;5.90;3.10;;;;;;;4.91;62.76;98304.54;107210;1274;151531;-82
2022/02/12 08:31:27;;;;;;;7.70;3.20;;;;;;;4.35;61.99;98314.90;107307;1274;127870;-83
2022/02/12 08:33:56;;;;;;;4.30;2.80;;;;;;;3.74;61.73;98315.73;107223;1274;171074;-83
2022/02/12 08:36:24;;;;;;;5.20;2.90;;;;;;;3.36;61.31;98319.25;107232;1274;144580;-82
2022/02/12 08:38:53;;;;;;;4.60;3.10;;;;;;;2.83;61.56;98321.05;107131;1274;199557;-82
2022/02/12 08:41:21;;;;;;;5.70;2.50;;;;;;;2.57;62.51;98328.30;107189;1274;148426;-83
2022/02/12 08:43:50;;;;;;;4.70;3.00;;;;;;;2.49;62.28;98331.67;107271;1274;151480;-82
2022/02/12 08:46:18;;;;;;;5.10;2.80;;;;;;;2.33;62.17;98331.25;107344;1274;115926;-83
2022/02/12 08:48:46;;;;;;;10.20;3.10;;;;;;;2.00;61.39;98335.45;107119;1274;189660;-82
2022/02/12 08:51:15;;;;;;;4.90;3.00;;;;;;;1.71;62.26;98343.31;107196;1274;140985;-81
2022/02/12 08:53:44;;;;;;;4.60;2.80;;;;;;;1.72;63.08;98352.13;107096;1274;178905;-82
2022/02/12 08:56:13;;;;;;;4.00;2.50;;;;;;;1.64;63.22;98353.86;107539;1274;96080;-82
2022/02/12 08:58:41;;;;;;;7.70;3.00;;;;;;;1.61;62.87;98355.34;107359;1274;105297;-81
2022/02/12 09:01:10;;;;;;;3.70;2.10;;;;;;;1.94;63.74;98351.86;107434;1275;98970;-82
2022/02/12 09:03:39;;;;;;;7.40;2.90;;;;;;;2.43;62.33;98348.08;107373;1274;129397;-82
2022/02/12 09:06:07;;;;;;;4.70;2.80;;;;;;;2.60;61.92;98345.10;107568;1274;101437;-82
2022/02/12 09:08:36;;;;;;;5.10;2.50;;;;;;;2.98;62.83;98349.59;107545;1274;96680;-82
2022/02/12 09:11:07;;;;;;;5.10;2.90;;;;;;;3.20;60.88;98350.81;107457;1274;99426;-82
2022/02/12 09:13:36;;;;;;;4.80;2.60;;;;;;;2.97;60.29;98354.78;107353;1274;154611;-82
2022/02/12 09:16:05;;;;;;;8.20;3.20;;;;;;;2.87;60.28;98361.54;107386;1274;147127;-82
2022/02/12 09:18:33;;;;;;;3.70;2.40;;;;;;;2.71;59.88;98364.91;107272;1274;170032;-83
2022/02/12 09:21:02;;;;;;;5.20;3.10;;;;;;;2.58;59.52;98368.10;107327;1274;143414;-82
2022/02/12 09:23:31;;;;;;;4.70;2.80;;;;;;;2.29;60.15;98371.41;107365;1274;142751;-82
2022/02/12 09:26:00;;;;;;;4.60;2.30;;;;;;;2.13;59.96;98372.61;107392;1274;101813;-82
2022/02/12 09:28:29;;;;;;;4.70;2.70;;;;;;;2.02;59.71;98379.99;107289;1274;130946;-82
2022/02/12 09:30:58;;;;;;;6.20;2.80;;;;;;;2.21;60.70;98382.82;107449;1274;88190;-82
2022/02/12 09:33:26;;;;;;;5.10;2.50;;;;;;;2.57;60.29;98377.63;107406;1274;129961;-82
2022/02/12 09:35:56;;;;;;;7.20;2.80;;;;;;;2.78;59.52;98374.37;107295;1274;196799;-82
2022/02/12 09:38:25;;;;;;;5.60;3.00;;;;;;;2.86;60.89;98381.30;107243;1274;145245;-83
2022/02/12 09:40:55;;;;;;;5.90;2.90;;;;;;;3.24;60.88;98383.14;107308;1275;106804;-83
2022/02/12 09:43:28;;;;;;;5.40;2.00;;;;;;;3.48;60.06;98388.16;107253;1275;146212;-82
2022/02/12 09:46:14;;;;;;;3.30;1.90;;;;;;;3.45;58.35;98392.00;105599;1274;2075763;-82
2022/02/12 09:48:46;;;;;;;3.20;2.20;;;;;;;3.01;57.16;98387.86;107329;1274;154150;-82
2022/02/12 09:51:17;;;;;;;8.90;2.30;;;;;;;2.76;57.03;98386.67;107358;1274;156760;-82
2022/02/12 09:53:45;;;;;;;7.80;2.60;;;;;;;2.60;57.28;98390.04;107064;1274;150554;-82
2022/02/12 09:56:14;;;;;;;7.30;2.30;;;;;;;2.73;58.24;98393.17;107282;1275;161724;-82
2022/02/12 09:58:42;;;;;;;5.20;2.40;;;;;;;2.79;57.91;98393.43;107284;1274;134616;-82
2022/02/12 10:01:11;;;;;;;6.30;2.70;;;;;;;2.58;56.80;98386.67;107133;1274;171186;-80
2022/02/12 10:03:41;;;;;;;3.90;2.20;;;;;;;2.38;57.31;98391.22;107400;1274;135766;-83
2022/02/12 10:06:10;;;;;;;3.70;2.40;;;;;;;2.47;57.44;98386.02;107400;1274;171094;-83
2022/02/12 10:08:41;;;;;;;8.60;2.70;;;;;;;2.86;58.90;98383.02;107459;1273;123566;-83
2022/02/12 10:11:17;;;;;;;4.70;2.20;;;;;;;3.39;59.31;98381.74;107473;1274;106818;-83
2022/02/12 10:13:45;;;;;;;3.80;2.40;;;;;;;3.78;58.14;98371.03;107438;1274;100545;-83
2022/02/12 10:16:14;;;;;;;4.60;2.70;;;;;;;4.05;57.87;98367.24;107345;1274;104632;-83
2022/02/12 10:18:44;;;;;;;4.80;2.60;;;;;;;4.20;58.00;98365.19;107326;1274;103487;-83
2022/02/12 10:21:13;;;;;;;4.30;2.30;;;;;;;4.65;57.75;98363.45;107337;1274;108428;-84
2022/02/12 10:23:42;;;;;;;6.30;2.20;;;;;;;5.04;57.03;98360.00;107375;1274;159891;-80
2022/02/12 10:26:13;;;;;;;4.40;2.40;;;;;;;5.10;56.25;98359.61;107234;1274;138886;-82
2022/02/12 10:28:45;;;;;;;4.80;2.70;;;;;;;5.51;56.78;98359.67;107178;1274;166616;-82
2022/02/12 10:31:14;;;;;;;5.90;2.40;;;;;;;5.76;56.05;98358.09;107275;1274;195259;-83
2022/02/12 10:33:44;;;;;;;8.10;5.00;;;;;;;5.77;53.63;98356.27;107168;1274;202334;-83
2022/02/12 10:36:16;;;;;;;4.40;3.10;;;;;;;5.08;53.53;98359.23;107262;1274;120934;-83
2022/02/12 10:38:48;;;;;;;5.90;2.50;;;;;;;4.38;52.24;98351.45;107272;1274;111770;-83
2022/02/12 10:41:19;;;;;;;4.80;2.10;;;;;;;3.90;51.13;98352.67;107266;1274;131550;-83
2022/02/12 10:43:48;;;;;;;;;;;;;;;3.63;52.39;98353.54;105377;1274;1565520;-84
2022/02/12 10:46:18;;;;;;;4.60;2.60;;;;;;;3.65;52.08;98356.09;107254;1274;202815;-84
2022/02/12 10:48:50;;;;;;;8.90;3.20;;;;;;;3.35;51.61;98355.41;107220;1274;240164;-83
2022/02/12 10:51:19;;;;;;;4.70;2.10;;;;;;;3.30;53.12;98351.39;107275;1274;190588;-83
2022/02/12 10:54:05;;;;;;;6.10;2.50;;;;;;;3.48;52.23;98350.60;107073;1274;163361;-84
2022/02/12 10:56:47;;;;;;;5.50;2.30;;;;;;;3.79;53.33;98351.14;107136;1274;150523;-84
2022/02/12 10:59:16;;;;;;;4.50;2.00;;;;;;;4.39;53.71;98345.01;107314;1274;127577;-84
2022/02/12 11:01:45;;;;;;;4.70;2.40;;;;;;;4.82;53.20;98344.27;107230;1274;141708;-84
2022/02/12 11:04:15;;;;;;;8.60;2.30;;;;;;;5.07;52.82;98351.42;107369;1274;98752;-84
2022/02/12 11:06:46;;;;;;;6.40;2.40;;;;;;;4.92;50.67;98342.06;107370;1274;123150;-83
2022/02/12 11:09:14;;;;;;;4.00;1.80;;;;;;;4.42;51.21;98334.73;107138;1274;169474;-84
2022/02/12 11:11:43;;;;;;;3.60;2.10;;;;;;;4.57;51.74;98340.02;107321;1274;100901;-83
2022/02/12 11:14:13;;;;;;;4.00;2.10;;;;;;;4.68;51.41;98333.76;107343;1274;135439;-83
2022/02/12 11:16:43;;;;;;;2.80;1.90;;;;;;;4.62;51.41;98330.66;107306;1274;122689;-84
2022/02/12 11:19:11;;;;;;;2.50;1.90;;;;;;;4.67;51.28;98326.36;107245;1274;114735;-80
2022/02/12 11:21:40;;;;;;;3.90;2.10;;;;;;;4.83;51.81;98327.38;107449;1274;186274;-85
2022/02/12 11:24:11;;;;;;;3.40;1.80;;;;;;;4.93;50.79;98335.85;107220;1274;129904;-84
2022/02/12 11:26:41;;;;;;;4.00;2.10;;;;;;;4.82;50.43;98332.39;107420;1274;107742;-85
2022/02/12 11:29:31;;;;;;;3.60;1.60;;;;;;;4.85;50.98;98328.88;105864;1274;2047645;-85
2022/02/12 11:32:14;;;;;;;2.70;1.80;;;;;;;4.82;50.45;98324.10;107294;1274;134764;-85
2022/02/12 11:35:06;;;;;;;3.70;1.90;;;;;;;4.78;49.95;98329.17;107225;1274;211178;-84
2022/02/12 11:37:38;;;;;;;3.50;1.60;;;;;;;4.89;51.10;98335.31;107228;1275;110749;-85
2022/02/12 11:40:15;;;;;;;2.50;1.40;;;;;;;5.16;50.26;98339.46;107488;1274;116105;-85
2022/02/12 11:42:45;;;;;;;2.50;1.40;;;;;;;5.29;49.65;98339.33;107332;1274;118418;-84